Hyalite Weather Station

This weather station provides temperature, wind speed, gust or max wind speed, and wind direction at 9982ft near the summit of Flanders Mountain. This data can be used with temperature and precipitation data from the Shower Falls SNOTEL site. If the data has not been updated recently you can view it directly on datagarrison.com

Elevation
9982ft
Jump to table bottom
Date Time Temperature
deg F
RH, % Wind Speed Wind Gust Wind Direction
02/19/20 23:00 9.8 35 11 18 W - 267
02/19/20 22:00 8.0 29 10 16 W - 250
02/19/20 21:00 8.4 32 10 12 W - 256
02/19/20 20:00 8.1 46 10 15 W - 257
02/19/20 19:00 7.2 88 9 12 W - 253
02/19/20 18:00 6.0 89 10 12 W - 253
02/19/20 17:00 6.6 89 10 16 W - 253
02/19/20 16:00 6.1 90 11 16 W - 251
02/19/20 15:00 5.8 91 10 15 W - 253
02/19/20 14:00 5.5 90 8 14 W - 250
02/19/20 13:00 6.2 90 7 12 SW - 243
02/19/20 12:00 4.6 90 5 10 SW - 240
02/19/20 11:00 5.4 89 5 7 SW - 244
02/19/20 10:00 2.2 88 6 12 W - 270
02/19/20 09:00 -2.1 87 8 11 W - 265
02/19/20 08:00 -3.0 87 8 11 W - 270
02/19/20 07:00 -4.4 87 8 12 W - 277
02/19/20 06:00 -4.0 87 8 12 W - 275
02/19/20 05:00 -4.3 87 8 13 W - 275
02/19/20 04:00 -4.1 87 8 12 W - 265
02/19/20 03:00 -3.5 87 8 11 W - 270
02/19/20 02:00 -2.7 87 7 10 W - 270
02/19/20 01:00 -2.7 87 7 10 W - 274
02/19/20 00:00 -2.3 87 6 9 W - 270
02/18/20 23:00 -2.4 88 7 9 W - 267
02/18/20 22:00 -1.6 88 4 7 NW - 307
02/18/20 21:00 -1.4 88 3 6 NW - 319
02/18/20 20:00 -1.1 88 3 6 NW - 321
02/18/20 19:00 -1.4 88 4 7 NW - 314
02/18/20 18:00 -0.9 88 3 9 NW - 320
02/18/20 17:00 0.2 89 7 15 W - 260
02/18/20 16:00 2.5 89 10 24 W - 258
02/18/20 15:00 0.9 89 8 19 W - 265
02/18/20 14:00 1.0 89 10 20 W - 263
02/18/20 13:00 1.7 89 9 18 W - 274
02/18/20 12:00 -0.3 88 14 27 W - 267
02/18/20 11:00 -0.6 88 15 30 W - 275
02/18/20 10:00 -1.2 88 15 27 W - 265
02/18/20 09:00 -1.9 88 15 24 W - 261
02/18/20 08:00 -2.1 87 15 22 W - 260
02/18/20 07:00 -3.0 87 15 24 W - 260
02/18/20 06:00 -2.9 88 11 17 W - 258
02/18/20 05:00 -2.0 88 9 17 W - 272
02/18/20 04:00 -0.7 88 7 16 W - 274
02/18/20 03:00 -0.4 88 10 20 W - 274
02/18/20 02:00 -0.5 88 10 17 W - 263
02/18/20 01:00 0.2 88 12 19 W - 263
02/18/20 00:00 0.0 88 11 20 W - 268
02/17/20 23:00 0.5 89 12 20 W - 268
02/17/20 22:00 2.1 89 9 19 W - 272